createdAt,value
2022-10-15T00:01:35.451Z,97694.53
2022-10-15T00:06:59.528Z,97693.69
2022-10-15T00:12:24.709Z,97694.72
2022-10-15T00:17:52.557Z,97685.38
2022-10-15T00:23:19.417Z,97667.25
2022-10-15T00:28:43.446Z,97670.81
2022-10-15T00:34:13.395Z,97677.69
2022-10-15T00:39:37.556Z,97657.69
2022-10-15T00:45:05.390Z,97667.50
2022-10-15T00:50:35.589Z,97667.69
2022-10-15T00:56:00.547Z,97672.28
2022-10-15T01:01:24.455Z,97679.38
2022-10-15T01:06:51.425Z,97671.25
2022-10-15T01:12:16.421Z,97666.84
2022-10-15T01:17:51.410Z,97664.78
2022-10-15T01:23:47.461Z,97649.56
2022-10-15T01:29:25.606Z,97642.47
2022-10-15T01:34:58.459Z,97634.75
2022-10-15T01:40:30.435Z,97637.69
2022-10-15T01:46:03.435Z,97629.75
2022-10-15T01:51:50.479Z,97628.91
2022-10-15T01:57:15.567Z,97608.50
2022-10-15T02:02:41.463Z,97613.50
2022-10-15T02:08:15.451Z,97623.88
2022-10-15T02:13:51.463Z,97615.75
2022-10-15T02:19:21.494Z,97603.25
2022-10-15T02:24:55.841Z,97601.59
2022-10-15T02:30:23.479Z,97609.09
2022-10-15T02:35:55.843Z,97582.03
2022-10-15T02:41:25.660Z,97577.22
2022-10-15T02:46:51.523Z,97575.13
2022-10-15T02:52:16.555Z,97557.41
2022-10-15T02:57:43.574Z,97550.31
2022-10-15T03:03:08.486Z,97548.03
2022-10-15T03:08:32.497Z,97554.03
2022-10-15T03:14:00.477Z,97564.25
2022-10-15T03:19:26.622Z,97568.41
2022-10-15T03:24:51.492Z,97569.03
2022-10-15T03:30:22.478Z,97562.59
2022-10-15T03:35:48.513Z,97555.50
2022-10-15T03:41:14.533Z,97547.78
2022-10-15T03:46:43.563Z,97560.69
2022-10-15T03:52:12.555Z,97550.66
2022-10-15T03:57:38.499Z,97554.81
2022-10-15T04:03:06.527Z,97561.88
2022-10-15T04:08:31.527Z,97560.00
2022-10-15T04:14:09.515Z,97553.78
2022-10-15T04:19:37.518Z,97537.53
2022-10-15T04:25:01.540Z,97538.78
2022-10-15T04:30:26.507Z,97531.69
2022-10-15T04:35:56.593Z,97549.19
2022-10-15T04:41:47.523Z,97555.78
2022-10-15T04:47:16.566Z,97564.09
2022-10-15T04:52:57.630Z,97574.06
2022-10-15T04:58:25.547Z,97559.50
2022-10-15T05:03:52.694Z,97554.75
2022-10-15T05:09:21.554Z,97544.94
2022-10-15T05:14:46.559Z,97532.47
2022-10-15T05:20:17.623Z,97535.16
2022-10-15T05:25:44.561Z,97552.63
2022-10-15T05:31:17.560Z,97568.44
2022-10-15T05:36:57.582Z,97572.56
2022-10-15T05:42:27.902Z,97560.72
2022-10-15T05:47:52.586Z,97569.03
2022-10-15T05:53:17.610Z,97576.13
2022-10-15T05:58:49.644Z,97583.81
2022-10-15T06:04:14.683Z,97574.88
2022-10-15T06:09:38.675Z,97579.66
2022-10-15T06:15:05.594Z,97575.91
2022-10-15T06:20:29.619Z,97573.22
2022-10-15T06:25:55.602Z,97595.72
2022-10-15T06:31:23.595Z,97596.81
2022-10-15T06:36:54.691Z,97612.06
2022-10-15T06:42:19.601Z,97624.81
2022-10-15T06:47:50.644Z,97635.03
2022-10-15T06:53:16.642Z,97644.22
2022-10-15T06:58:40.595Z,97643.81
2022-10-15T07:04:08.649Z,97645.72
2022-10-15T07:09:32.653Z,97658.03
2022-10-15T07:14:57.639Z,97651.00
2022-10-15T07:20:25.645Z,97655.84
2022-10-15T07:25:56.629Z,97647.75
2022-10-15T07:31:21.631Z,97648.59
2022-10-15T07:36:56.645Z,97678.00
2022-10-15T07:42:21.810Z,97669.06
2022-10-15T07:47:45.995Z,97659.72
2022-10-15T07:53:12.684Z,97657.84
2022-10-15T07:58:41.648Z,97655.34
2022-10-15T08:04:06.665Z,97662.06
2022-10-15T08:09:33.768Z,97665.63
2022-10-15T08:14:58.778Z,97659.59
2022-10-15T08:20:23.685Z,97667.94
2022-10-15T08:25:51.704Z,97676.69
2022-10-15T08:31:17.663Z,97681.28
2022-10-15T08:36:48.658Z,97675.84
2022-10-15T08:42:25.980Z,97676.28
2022-10-15T08:47:54.686Z,97691.31
2022-10-15T08:53:24.700Z,97704.66
2022-10-15T08:59:01.705Z,97702.97
2022-10-15T09:04:35.737Z,97706.72
2022-10-15T09:10:06.670Z,97710.47
2022-10-15T09:15:43.771Z,97714.63
2022-10-15T09:21:10.864Z,97720.25
2022-10-15T09:26:42.725Z,97701.88
2022-10-15T09:32:18.711Z,97727.56
2022-10-15T09:38:04.890Z,97724.00
2022-10-15T09:43:37.720Z,97733.16
2022-10-15T09:49:10.711Z,97725.81
2022-10-15T09:54:44.727Z,97719.53
2022-10-15T10:00:10.738Z,97718.00
2022-10-15T10:05:40.734Z,97719.41
2022-10-15T10:11:10.781Z,97720.75
2022-10-15T10:16:39.797Z,97731.00
2022-10-15T10:22:23.220Z,97735.19
2022-10-15T10:27:55.731Z,97722.19
2022-10-15T10:33:21.767Z,97731.34
2022-10-15T10:38:49.754Z,97727.13
2022-10-15T10:44:13.747Z,97724.53
2022-10-15T10:49:44.756Z,97729.94
2022-10-15T10:55:31.778Z,97719.88
2022-10-15T11:00:59.792Z,97730.31
2022-10-15T11:06:58.802Z,97733.03
2022-10-15T11:12:44.766Z,97725.81
2022-10-15T11:18:23.782Z,97730.22
2022-10-15T11:24:11.130Z,97732.84
2022-10-15T11:29:47.777Z,97730.19
2022-10-15T11:35:55.670Z,97718.94
2022-10-15T11:41:36.787Z,97716.06
2022-10-15T11:47:18.205Z,97722.91
2022-10-15T11:53:02.778Z,97715.03
2022-10-15T11:58:36.785Z,97715.53
2022-10-15T12:04:11.820Z,97712.47
2022-10-15T12:09:41.803Z,97707.84
2022-10-15T12:15:21.801Z,97693.56
2022-10-15T12:20:48.806Z,97681.66
2022-10-15T12:26:38.838Z,97678.34
2022-10-15T12:32:06.854Z,97680.34
2022-10-15T12:37:43.830Z,97672.28
2022-10-15T12:43:13.321Z,97683.16
2022-10-15T12:48:46.833Z,97675.44
2022-10-15T12:54:47.817Z,97678.69
2022-10-15T13:00:14.850Z,97697.41
2022-10-15T13:05:41.852Z,97704.16
2022-10-15T13:11:12.846Z,97702.19
2022-10-15T13:16:38.839Z,97707.03
2022-10-15T13:22:04.834Z,97696.59
2022-10-15T13:27:35.862Z,97692.53
2022-10-15T13:33:03.006Z,97699.56
2022-10-15T13:38:38.029Z,97706.44
2022-10-15T13:44:08.862Z,97688.31
2022-10-15T13:49:34.857Z,97687.66
2022-10-15T13:54:59.853Z,97707.13
2022-10-15T14:00:35.953Z,97707.09
2022-10-15T14:06:03.983Z,97710.47
2022-10-15T14:11:29.946Z,97713.69
2022-10-15T14:16:57.911Z,97713.41
2022-10-15T14:22:22.867Z,97712.59
2022-10-15T14:27:47.913Z,97704.00
2022-10-15T14:33:14.888Z,97698.34
2022-10-15T14:38:45.908Z,97703.72
2022-10-15T14:44:28.917Z,97729.16
2022-10-15T14:49:55.907Z,97729.19
2022-10-15T14:55:27.414Z,97731.81
2022-10-15T15:00:55.894Z,97735.03
2022-10-15T15:06:24.905Z,97720.34
2022-10-15T15:11:49.206Z,97718.59
2022-10-15T15:17:14.007Z,97715.78
2022-10-15T15:22:46.062Z,97711.41
2022-10-15T15:28:11.974Z,97712.44
2022-10-15T15:33:43.938Z,97712.00
2022-10-15T15:39:12.059Z,97717.16
2022-10-15T15:44:35.929Z,97730.47
2022-10-15T15:50:00.943Z,97739.59
2022-10-15T15:55:28.979Z,97733.84
2022-10-15T16:00:53.964Z,97731.38
2022-10-15T16:06:20.963Z,97733.38
2022-10-15T16:11:48.944Z,97740.97
2022-10-15T16:17:12.988Z,97730.84
2022-10-15T16:22:37.980Z,97740.94
2022-10-15T16:28:08.059Z,97758.38
2022-10-15T16:33:33.017Z,97764.06
2022-10-15T16:39:03.994Z,97767.28
2022-10-15T16:44:31.957Z,97755.81
2022-10-15T16:49:57.221Z,97766.53
2022-10-15T16:55:22.969Z,97769.69
2022-10-15T17:00:50.004Z,97794.81
2022-10-15T17:06:18.189Z,97800.47
2022-10-15T17:11:45.076Z,97804.22
2022-10-15T17:17:13.986Z,97804.22
2022-10-15T17:22:39.043Z,97810.31
2022-10-15T17:28:04.046Z,97817.19
2022-10-15T17:33:32.030Z,97812.78
2022-10-15T17:39:04.031Z,97811.50
2022-10-15T17:44:29.171Z,97817.81
2022-10-15T17:49:56.016Z,97821.97
2022-10-15T17:55:21.039Z,97814.44
2022-10-15T18:00:46.013Z,97838.09
2022-10-15T18:06:26.047Z,97844.97
2022-10-15T18:11:53.051Z,97844.56
2022-10-15T18:17:25.220Z,97844.13
2022-10-15T18:22:53.014Z,97862.09
2022-10-15T18:28:20.112Z,97849.16
2022-10-15T18:33:47.044Z,97852.72
2022-10-15T18:39:21.037Z,97860.00
2022-10-15T18:44:46.057Z,97874.47
2022-10-15T18:50:10.074Z,97875.91
2022-10-15T18:55:39.074Z,97874.22
2022-10-15T19:01:05.061Z,97885.97
2022-10-15T19:06:30.088Z,97881.34
2022-10-15T19:11:59.162Z,97886.38
2022-10-15T19:17:24.071Z,97880.94
2022-10-15T19:22:48.098Z,97880.53
2022-10-15T19:28:09.070Z,97884.69
2022-10-15T19:33:37.099Z,97890.97
2022-10-15T19:39:09.076Z,97901.22
2022-10-15T19:44:37.103Z,97895.56
2022-10-15T19:50:06.117Z,97911.47
2022-10-15T19:55:31.091Z,97918.16
2022-10-15T20:01:03.130Z,97941.97
2022-10-15T20:06:29.122Z,97941.06
2022-10-15T20:11:54.087Z,97954.88
2022-10-15T20:17:22.183Z,97945.44
2022-10-15T20:22:46.159Z,97959.84
2022-10-15T20:28:11.132Z,97975.75
2022-10-15T20:33:39.093Z,97972.63
2022-10-15T20:39:10.139Z,97983.66
2022-10-15T20:44:35.129Z,97988.44
2022-10-15T20:50:06.123Z,97983.25
2022-10-15T20:55:31.129Z,97979.06
2022-10-15T21:00:56.143Z,97986.31
2022-10-15T21:06:25.110Z,97995.31
2022-10-15T21:11:50.723Z,98006.56
2022-10-15T21:17:16.285Z,98008.63
2022-10-15T21:22:44.251Z,98007.38
2022-10-15T21:28:09.166Z,98016.94
2022-10-15T21:33:33.192Z,98029.84
2022-10-15T21:39:11.154Z,98039.03
2022-10-15T21:44:36.187Z,98041.09
2022-10-15T21:50:00.142Z,98036.47
2022-10-15T21:55:30.537Z,98044.03
2022-10-15T22:00:54.283Z,98052.41
2022-10-15T22:06:20.168Z,98057.66
2022-10-15T22:11:49.182Z,98058.72
2022-10-15T22:17:14.183Z,98046.22
2022-10-15T22:22:39.814Z,98035.81
2022-10-15T22:28:08.175Z,98039.59
2022-10-15T22:33:33.189Z,98051.09
2022-10-15T22:39:11.215Z,98047.56
2022-10-15T22:44:32.197Z,98048.81
2022-10-15T22:49:57.362Z,98040.06
2022-10-15T22:55:22.207Z,98039.66
2022-10-15T23:00:49.253Z,98046.38
2022-10-15T23:06:13.193Z,98044.09
2022-10-15T23:11:40.222Z,98041.78
2022-10-15T23:17:07.219Z,98058.91
2022-10-15T23:22:32.194Z,98063.97
2022-10-15T23:27:58.208Z,98068.38
2022-10-15T23:33:25.238Z,98064.63
2022-10-15T23:38:56.223Z,98079.22
2022-10-15T23:44:22.258Z,98072.31
2022-10-15T23:49:49.239Z,98083.56
2022-10-15T23:55:15.233Z,98091.09
